createdAt,value
2022-10-08T00:03:12.143Z,100.00
2022-10-08T00:08:14.697Z,100.00
2022-10-08T00:13:17.278Z,100.00
2022-10-08T00:18:22.931Z,100.00
2022-10-08T00:23:26.161Z,100.00
2022-10-08T00:28:28.798Z,100.00
2022-10-08T00:33:32.846Z,100.00
2022-10-08T00:38:36.060Z,100.00
2022-10-08T00:43:43.956Z,100.00
2022-10-08T00:48:48.282Z,100.00
2022-10-08T00:53:51.520Z,100.00
2022-10-08T00:58:54.553Z,100.00
2022-10-08T01:04:02.390Z,100.00
2022-10-08T01:09:17.937Z,100.00
2022-10-08T01:14:34.474Z,100.00
2022-10-08T01:20:04.760Z,100.00
2022-10-08T01:25:36.095Z,100.00
2022-10-08T01:30:46.418Z,100.00
2022-10-08T01:35:56.129Z,100.00
2022-10-08T01:41:02.778Z,100.00
2022-10-08T01:46:12.287Z,100.00
2022-10-08T01:51:18.891Z,100.00
2022-10-08T01:56:25.478Z,100.00
2022-10-08T02:01:37.831Z,100.00
2022-10-08T02:06:45.748Z,100.00
2022-10-08T02:11:48.310Z,100.00
2022-10-08T02:16:55.537Z,100.00
2022-10-08T02:22:02.363Z,100.00
2022-10-08T02:27:09.092Z,100.00
2022-10-08T02:32:19.221Z,100.00
2022-10-08T02:37:27.053Z,100.00
2022-10-08T02:42:33.465Z,100.00
2022-10-08T02:47:41.226Z,100.00
2022-10-08T02:52:47.561Z,100.00
2022-10-08T02:57:56.049Z,100.00
2022-10-08T03:03:06.908Z,100.00
2022-10-08T03:08:14.241Z,100.00
2022-10-08T03:13:18.428Z,100.00
2022-10-08T03:18:25.154Z,100.00
2022-10-08T03:23:27.714Z,100.00
2022-10-08T03:28:30.321Z,100.00
2022-10-08T03:33:34.627Z,100.00
2022-10-08T03:38:37.275Z,100.00
2022-10-08T03:43:39.827Z,100.00
2022-10-08T03:48:44.500Z,100.00
2022-10-08T03:53:47.480Z,100.00
2022-10-08T03:58:54.432Z,100.00
2022-10-08T04:03:58.309Z,100.00
2022-10-08T04:09:01.600Z,100.00
2022-10-08T04:14:04.441Z,100.00
2022-10-08T04:19:08.346Z,100.00
2022-10-08T04:24:11.176Z,100.00
2022-10-08T04:29:14.030Z,100.00
2022-10-08T04:34:18.343Z,100.00
2022-10-08T04:39:21.279Z,100.00
2022-10-08T04:44:23.948Z,100.00
2022-10-08T04:49:30.943Z,100.00
2022-10-08T04:54:33.669Z,100.00
2022-10-08T04:59:45.060Z,100.00
2022-10-08T05:04:58.079Z,100.00
2022-10-08T05:10:00.626Z,100.00
2022-10-08T05:15:03.176Z,100.00
2022-10-08T05:20:07.917Z,100.00
2022-10-08T05:25:10.883Z,100.00
2022-10-08T05:30:15.669Z,100.00
2022-10-08T05:35:21.725Z,100.00
2022-10-08T05:40:24.643Z,100.00
2022-10-08T05:45:27.582Z,100.00
2022-10-08T05:50:31.458Z,100.00
2022-10-08T05:55:34.027Z,100.00
2022-10-08T06:00:36.964Z,100.00
2022-10-08T06:05:40.841Z,100.00
2022-10-08T06:10:49.659Z,100.00
2022-10-08T06:15:57.051Z,100.00
2022-10-08T06:21:05.190Z,100.00
2022-10-08T06:26:09.836Z,100.00
2022-10-08T06:31:13.298Z,100.00
2022-10-08T06:36:18.918Z,100.00
2022-10-08T06:41:22.395Z,100.00
2022-10-08T06:46:24.985Z,100.00
2022-10-08T06:51:30.130Z,100.00
2022-10-08T06:56:32.686Z,100.00
2022-10-08T07:01:35.881Z,100.00
2022-10-08T07:06:39.951Z,100.00
2022-10-08T07:11:42.496Z,100.00
2022-10-08T07:16:45.081Z,100.00
2022-10-08T07:21:48.988Z,100.00
2022-10-08T07:26:51.517Z,100.00
2022-10-08T07:31:54.459Z,100.00
2022-10-08T07:36:58.454Z,100.00
2022-10-08T07:42:00.959Z,100.00
2022-10-08T07:47:03.521Z,100.00
2022-10-08T07:52:08.019Z,100.00
2022-10-08T07:57:11.211Z,100.00
2022-10-08T08:02:13.771Z,100.00
2022-10-08T08:07:17.734Z,100.00
2022-10-08T08:12:20.260Z,100.00
2022-10-08T08:17:22.808Z,100.00
2022-10-08T08:22:26.747Z,100.00
2022-10-08T08:27:30.224Z,100.00
2022-10-08T08:32:33.645Z,100.00
2022-10-08T08:37:37.775Z,100.00
2022-10-08T08:42:51.200Z,100.00
2022-10-08T08:48:09.598Z,100.00
2022-10-08T08:53:14.323Z,100.00
2022-10-08T08:58:26.989Z,100.00
2022-10-08T09:03:34.653Z,100.00
2022-10-08T09:08:43.513Z,100.00
2022-10-08T09:13:51.473Z,100.00
2022-10-08T09:18:54.596Z,100.00
2022-10-08T09:23:58.649Z,100.00
2022-10-08T09:29:02.410Z,100.00
2022-10-08T09:34:16.416Z,100.00
2022-10-08T09:39:22.152Z,100.00
2022-10-08T09:44:24.699Z,100.00
2022-10-08T09:49:30.961Z,100.00
2022-10-08T09:54:38.207Z,100.00
2022-10-08T09:59:50.330Z,100.00
2022-10-08T10:04:54.896Z,100.00
2022-10-08T10:10:01.853Z,100.00
2022-10-08T10:15:11.352Z,100.00
2022-10-08T10:20:21.531Z,98.05
2022-10-08T10:25:35.380Z,95.77
2022-10-08T10:30:52.460Z,94.19
2022-10-08T10:36:01.568Z,94.22
2022-10-08T10:41:14.046Z,92.10
2022-10-08T10:46:24.932Z,92.99
2022-10-08T10:51:47.403Z,92.22
2022-10-08T10:56:57.148Z,92.00
2022-10-08T11:02:07.691Z,92.23
2022-10-08T11:07:29.795Z,94.15
2022-10-08T11:12:42.023Z,94.86
2022-10-08T11:18:07.740Z,93.63
2022-10-08T11:23:28.584Z,90.73
2022-10-08T11:28:44.109Z,91.00
2022-10-08T11:33:47.359Z,91.07
2022-10-08T11:38:59.871Z,91.41
2022-10-08T11:44:05.020Z,82.82
2022-10-08T11:49:41.124Z,80.40
2022-10-08T11:54:55.086Z,80.74
2022-10-08T12:00:07.753Z,80.88
2022-10-08T12:05:19.635Z,77.23
2022-10-08T12:10:33.200Z,79.43
2022-10-08T12:15:54.972Z,83.89
2022-10-08T12:21:31.097Z,81.22
2022-10-08T12:26:33.680Z,80.52
2022-10-08T12:31:39.879Z,79.75
2022-10-08T12:36:49.299Z,77.91
2022-10-08T12:42:01.164Z,78.40
2022-10-08T12:47:15.686Z,77.05
2022-10-08T12:52:19.563Z,77.93
2022-10-08T12:57:24.857Z,80.83
2022-10-08T13:02:42.835Z,76.18
2022-10-08T13:07:46.613Z,77.02
2022-10-08T13:13:03.209Z,77.34
2022-10-08T13:18:15.447Z,76.21
2022-10-08T13:23:27.516Z,75.91
2022-10-08T13:28:58.668Z,75.12
2022-10-08T13:33:54.411Z,75.46
2022-10-08T13:38:57.101Z,74.97
2022-10-08T13:44:07.505Z,74.80
2022-10-08T13:49:20.299Z,75.94
2022-10-08T13:54:25.228Z,75.86
2022-10-08T13:59:30.694Z,76.77
2022-10-08T14:04:34.896Z,79.03
2022-10-08T14:09:37.625Z,79.87
2022-10-08T14:14:40.152Z,77.99
2022-10-08T14:19:44.174Z,77.31
2022-10-08T14:24:46.691Z,74.43
2022-10-08T14:29:49.385Z,74.24
2022-10-08T14:34:53.256Z,76.54
2022-10-08T14:39:55.773Z,75.00
2022-10-08T14:44:58.985Z,76.10
2022-10-08T14:50:02.835Z,75.10
2022-10-08T14:55:06.927Z,72.80
2022-10-08T15:00:10.293Z,73.06
2022-10-08T15:05:14.201Z,75.66
2022-10-08T15:10:16.993Z,75.31
2022-10-08T15:15:19.841Z,77.72
2022-10-08T15:20:26.857Z,78.14
2022-10-08T15:25:33.315Z,80.04
2022-10-08T15:30:36.566Z,80.68
2022-10-08T15:35:40.615Z,81.11
2022-10-08T15:40:43.143Z,80.65
2022-10-08T15:45:45.700Z,81.28
2022-10-08T15:50:58.686Z,81.39
2022-10-08T15:56:01.245Z,79.90
2022-10-08T16:01:08.161Z,77.83
2022-10-08T16:06:14.869Z,79.24
2022-10-08T16:11:18.887Z,79.79
2022-10-08T16:16:22.060Z,80.75
2022-10-08T16:21:27.008Z,81.27
2022-10-08T16:26:31.867Z,80.70
2022-10-08T16:31:36.013Z,81.04
2022-10-08T16:36:40.339Z,85.27
2022-10-08T16:41:42.964Z,85.79
2022-10-08T16:46:48.277Z,86.17
2022-10-08T16:51:53.287Z,85.90
2022-10-08T16:56:55.875Z,86.50
2022-10-08T17:02:00.110Z,87.70
2022-10-08T17:07:04.055Z,89.82
2022-10-08T17:12:06.636Z,91.25
2022-10-08T17:17:09.279Z,90.90
2022-10-08T17:22:16.189Z,91.06
2022-10-08T17:27:18.698Z,95.94
2022-10-08T17:32:21.591Z,98.39
2022-10-08T17:37:25.471Z,99.24
2022-10-08T17:42:28.487Z,99.32
2022-10-08T17:47:31.541Z,100.00
2022-10-08T17:52:35.391Z,100.00
2022-10-08T17:57:37.919Z,100.00
2022-10-08T18:02:40.465Z,100.00
2022-10-08T18:07:44.395Z,100.00
2022-10-08T18:12:47.213Z,100.00
2022-10-08T18:17:49.894Z,100.00
2022-10-08T18:22:53.763Z,100.00
2022-10-08T18:27:59.447Z,100.00
2022-10-08T18:33:02.525Z,100.00
2022-10-08T18:38:06.533Z,100.00
2022-10-08T18:43:09.031Z,100.00
2022-10-08T18:48:11.555Z,100.00
2022-10-08T18:53:15.411Z,100.00
2022-10-08T18:58:17.929Z,100.00
2022-10-08T19:03:20.479Z,100.00
2022-10-08T19:08:24.453Z,100.00
2022-10-08T19:13:27.002Z,100.00
2022-10-08T19:18:29.579Z,100.00
2022-10-08T19:23:33.430Z,100.00
2022-10-08T19:28:37.261Z,100.00
2022-10-08T19:33:40.632Z,100.00
2022-10-08T19:38:44.827Z,100.00
2022-10-08T19:43:47.570Z,100.00
2022-10-08T19:48:51.043Z,100.00
2022-10-08T19:53:55.345Z,100.00
2022-10-08T19:58:58.519Z,100.00
2022-10-08T20:04:02.785Z,100.00
2022-10-08T20:09:10.634Z,100.00
2022-10-08T20:14:14.157Z,100.00
2022-10-08T20:19:19.373Z,100.00
2022-10-08T20:24:24.178Z,100.00
2022-10-08T20:29:30.794Z,100.00
2022-10-08T20:34:33.858Z,100.00
2022-10-08T20:39:37.864Z,100.00
2022-10-08T20:44:40.788Z,100.00
2022-10-08T20:49:43.425Z,100.00
2022-10-08T20:54:47.394Z,100.00
2022-10-08T20:59:49.922Z,100.00
2022-10-08T21:04:52.460Z,100.00
2022-10-08T21:09:58.456Z,100.00
2022-10-08T21:15:01.613Z,100.00
2022-10-08T21:20:04.776Z,100.00
2022-10-08T21:25:09.116Z,100.00
2022-10-08T21:30:13.670Z,100.00
2022-10-08T21:35:16.238Z,100.00
2022-10-08T21:40:20.349Z,100.00
2022-10-08T21:45:23.038Z,100.00
2022-10-08T21:50:25.723Z,100.00
2022-10-08T21:55:29.993Z,100.00
2022-10-08T22:00:34.904Z,100.00
2022-10-08T22:05:37.541Z,100.00
2022-10-08T22:10:41.692Z,100.00
2022-10-08T22:15:52.347Z,100.00
2022-10-08T22:20:55.117Z,100.00
2022-10-08T22:26:02.075Z,100.00
2022-10-08T22:31:06.529Z,100.00
2022-10-08T22:36:12.019Z,100.00
2022-10-08T22:41:18.150Z,100.00
2022-10-08T22:46:25.215Z,100.00
2022-10-08T22:51:28.513Z,100.00
2022-10-08T22:56:33.023Z,100.00
2022-10-08T23:01:36.374Z,100.00
2022-10-08T23:06:38.874Z,100.00
2022-10-08T23:11:42.716Z,100.00
2022-10-08T23:16:45.264Z,100.00
2022-10-08T23:21:47.929Z,100.00
2022-10-08T23:26:51.785Z,100.00
2022-10-08T23:31:54.572Z,100.00
2022-10-08T23:36:57.430Z,100.00
2022-10-08T23:42:01.344Z,100.00
2022-10-08T23:47:03.856Z,100.00
2022-10-08T23:52:06.352Z,100.00
2022-10-08T23:57:10.218Z,100.00
